createdAt,value
2018-03-30T00:00:44.905Z,46.50
2018-03-30T00:03:12.580Z,46.40
2018-03-30T00:05:40.258Z,46.30
2018-03-30T00:08:07.938Z,46.20
2018-03-30T00:10:42.001Z,46.00
2018-03-30T00:13:09.650Z,46.00
2018-03-30T00:15:37.337Z,46.00
2018-03-30T00:18:04.994Z,46.00
2018-03-30T00:20:32.671Z,45.90
2018-03-30T00:23:00.348Z,45.90
2018-03-30T00:25:28.023Z,45.90
2018-03-30T00:27:56.489Z,45.90
2018-03-30T00:30:24.200Z,45.90
2018-03-30T00:32:51.851Z,45.80
2018-03-30T00:35:19.487Z,45.80
2018-03-30T00:37:47.911Z,45.80
2018-03-30T00:40:15.572Z,45.70
2018-03-30T00:42:43.231Z,45.80
2018-03-30T00:45:11.668Z,46.40
2018-03-30T00:47:40.217Z,45.70
2018-03-30T00:50:07.895Z,45.80
2018-03-30T00:52:36.314Z,45.80
2018-03-30T00:55:04.008Z,45.80
2018-03-30T00:57:31.690Z,45.80
2018-03-30T00:59:59.344Z,45.80
2018-03-30T01:02:27.000Z,45.80
2018-03-30T01:04:54.663Z,45.70
2018-03-30T01:07:22.310Z,45.80
2018-03-30T01:09:49.989Z,45.90
2018-03-30T01:12:17.646Z,45.80
2018-03-30T01:14:45.365Z,45.80
2018-03-30T01:17:13.055Z,45.80
2018-03-30T01:19:40.739Z,45.80
2018-03-30T01:22:09.267Z,46.10
2018-03-30T01:24:36.947Z,46.00
2018-03-30T01:27:04.660Z,46.10
2018-03-30T01:29:33.073Z,46.10
2018-03-30T01:32:00.765Z,46.00
2018-03-30T01:34:28.466Z,46.00
2018-03-30T01:36:56.160Z,46.00
2018-03-30T01:39:23.856Z,46.00
2018-03-30T01:41:51.514Z,46.10
2018-03-30T01:44:19.201Z,46.10
2018-03-30T01:46:47.617Z,46.30
2018-03-30T01:49:15.416Z,46.30
2018-03-30T01:51:43.941Z,46.30
2018-03-30T01:54:11.694Z,46.20
2018-03-30T01:56:39.460Z,46.20
2018-03-30T01:59:07.212Z,46.20
2018-03-30T02:01:34.974Z,46.20
2018-03-30T02:04:02.742Z,46.20
2018-03-30T02:06:30.512Z,46.20
2018-03-30T02:08:58.294Z,46.20
2018-03-30T02:11:26.042Z,46.30
2018-03-30T02:13:53.793Z,46.20
2018-03-30T02:16:21.560Z,46.30
2018-03-30T02:18:49.318Z,46.30
2018-03-30T02:21:17.078Z,46.30
2018-03-30T02:23:44.889Z,46.30
2018-03-30T02:26:12.661Z,46.30
2018-03-30T02:28:40.409Z,46.30
2018-03-30T02:31:08.105Z,46.40
2018-03-30T02:33:35.835Z,46.30
2018-03-30T02:36:03.680Z,46.30
2018-03-30T02:38:31.355Z,46.30
2018-03-30T02:40:59.789Z,46.30
2018-03-30T02:43:28.223Z,46.20
2018-03-30T02:45:55.880Z,46.20
2018-03-30T02:48:23.549Z,46.20
2018-03-30T02:50:51.279Z,46.10
2018-03-30T02:53:18.959Z,46.10
2018-03-30T02:55:46.640Z,46.00
2018-03-30T02:58:14.326Z,46.00
2018-03-30T03:00:41.987Z,45.90
2018-03-30T03:03:09.696Z,45.90
2018-03-30T03:05:37.362Z,45.90
2018-03-30T03:10:39.066Z,45.90
2018-03-30T03:13:06.765Z,46.10
2018-03-30T03:15:34.437Z,46.20
2018-03-30T03:18:02.241Z,46.30
2018-03-30T03:20:30.735Z,46.40
2018-03-30T03:22:58.403Z,46.30
2018-03-30T03:25:26.061Z,46.40
2018-03-30T03:27:53.735Z,46.40
2018-03-30T03:30:22.201Z,46.30
2018-03-30T03:32:49.936Z,46.20
2018-03-30T03:35:17.616Z,46.20
2018-03-30T03:37:45.275Z,46.30
2018-03-30T03:40:12.925Z,46.50
2018-03-30T03:42:40.606Z,46.50
2018-03-30T03:45:08.272Z,46.50
2018-03-30T03:47:35.947Z,46.50
2018-03-30T03:50:04.429Z,46.20
2018-03-30T03:52:32.870Z,46.10
2018-03-30T03:55:00.620Z,46.00
2018-03-30T03:57:28.306Z,46.00
2018-03-30T03:59:55.975Z,46.00
2018-03-30T04:02:23.648Z,46.10
2018-03-30T04:04:52.091Z,46.30
2018-03-30T04:07:19.772Z,46.30
2018-03-30T04:09:47.611Z,46.30
2018-03-30T04:12:15.247Z,46.40
2018-03-30T04:14:42.900Z,46.40
2018-03-30T04:17:10.550Z,46.40
2018-03-30T04:19:38.217Z,46.40
2018-03-30T04:22:05.935Z,46.40
2018-03-30T04:24:33.633Z,46.40
2018-03-30T04:27:02.095Z,46.50
2018-03-30T04:29:30.576Z,46.50
2018-03-30T04:31:59.008Z,46.40
2018-03-30T04:34:26.661Z,46.30
2018-03-30T04:36:54.437Z,46.30
2018-03-30T04:39:22.133Z,46.40
2018-03-30T04:41:50.579Z,46.50
2018-03-30T04:44:18.258Z,46.40
2018-03-30T04:46:45.935Z,46.40
2018-03-30T04:49:14.349Z,46.30
2018-03-30T04:51:42.012Z,46.30
2018-03-30T04:54:09.697Z,46.20
2018-03-30T04:56:37.378Z,46.30
2018-03-30T04:59:05.121Z,46.40
2018-03-30T05:01:32.826Z,46.40
2018-03-30T05:04:01.232Z,46.50
2018-03-30T05:06:28.904Z,46.50
2018-03-30T05:08:56.585Z,46.50
2018-03-30T05:11:24.257Z,46.50
2018-03-30T05:13:51.918Z,46.50
2018-03-30T05:16:19.576Z,46.50
2018-03-30T05:18:47.254Z,46.60
2018-03-30T05:21:14.987Z,46.70
2018-03-30T05:23:42.675Z,46.50
2018-03-30T05:26:10.358Z,46.50
2018-03-30T05:28:38.796Z,46.50
2018-03-30T05:31:06.496Z,46.50
2018-03-30T05:33:34.922Z,46.70
2018-03-30T05:36:02.606Z,46.70
2018-03-30T05:38:30.261Z,46.90
2018-03-30T05:40:58.019Z,47.00
2018-03-30T05:43:25.826Z,47.00
2018-03-30T05:45:53.579Z,47.10
2018-03-30T05:48:21.391Z,47.10
2018-03-30T05:50:49.168Z,47.20
2018-03-30T05:53:16.932Z,47.20
2018-03-30T05:55:44.705Z,47.20
2018-03-30T05:58:12.482Z,47.30
2018-03-30T06:00:41.047Z,46.90
2018-03-30T06:03:08.863Z,46.80
2018-03-30T06:05:36.623Z,46.60
2018-03-30T06:08:04.472Z,46.30
2018-03-30T06:10:32.976Z,46.30
2018-03-30T06:13:00.663Z,46.30
2018-03-30T06:15:28.323Z,46.40
2018-03-30T06:17:55.993Z,46.50
2018-03-30T06:20:23.676Z,46.50
2018-03-30T06:22:51.411Z,46.40
2018-03-30T06:25:19.100Z,46.30
2018-03-30T06:27:46.783Z,46.20
2018-03-30T06:30:15.257Z,46.30
2018-03-30T06:32:43.702Z,46.40
2018-03-30T06:35:11.374Z,46.40
2018-03-30T06:37:39.132Z,46.50
2018-03-30T06:40:06.877Z,46.40
2018-03-30T06:42:34.533Z,46.30
2018-03-30T06:45:02.213Z,46.20
2018-03-30T06:47:29.881Z,46.30
2018-03-30T06:49:57.535Z,46.30
2018-03-30T06:52:25.259Z,46.30
2018-03-30T06:54:52.935Z,46.30
2018-03-30T06:57:20.593Z,46.20
2018-03-30T07:02:11.824Z,46.50
2018-03-30T07:04:39.482Z,46.40
2018-03-30T07:07:07.167Z,46.50
2018-03-30T07:09:34.828Z,46.40
2018-03-30T07:12:02.511Z,46.30
2018-03-30T07:14:30.152Z,46.30
2018-03-30T07:16:57.827Z,46.20
2018-03-30T07:19:25.510Z,46.10
2018-03-30T07:21:53.934Z,46.00
2018-03-30T07:24:21.618Z,46.00
2018-03-30T07:26:49.275Z,45.90
2018-03-30T07:29:16.949Z,45.90
2018-03-30T07:31:44.646Z,45.90
2018-03-30T07:34:12.340Z,46.60
2018-03-30T07:36:40.084Z,46.00
2018-03-30T07:39:07.867Z,46.00
2018-03-30T07:41:35.627Z,46.00
2018-03-30T07:44:03.403Z,46.10
2018-03-30T07:46:31.144Z,46.30
2018-03-30T07:48:58.900Z,46.30
2018-03-30T07:51:26.667Z,46.30
2018-03-30T07:53:54.494Z,46.30
2018-03-30T07:56:22.281Z,46.40
2018-03-30T07:58:50.057Z,46.60
2018-03-30T08:01:17.825Z,46.70
2018-03-30T08:03:45.639Z,46.60
2018-03-30T08:06:14.183Z,46.50
2018-03-30T08:08:47.679Z,46.50
2018-03-30T08:11:15.464Z,46.50
2018-03-30T08:13:43.998Z,46.50
2018-03-30T08:16:11.768Z,46.40
2018-03-30T08:18:39.532Z,46.50
2018-03-30T08:21:07.337Z,46.40
2018-03-30T08:23:35.934Z,46.50
2018-03-30T08:26:03.792Z,46.40
2018-03-30T08:28:32.312Z,46.70
2018-03-30T08:31:00.106Z,46.70
2018-03-30T08:33:27.859Z,46.70
2018-03-30T08:35:55.638Z,46.80
2018-03-30T08:38:23.394Z,46.90
2018-03-30T08:40:51.173Z,46.90
2018-03-30T08:43:18.955Z,46.90
2018-03-30T08:45:47.527Z,46.90
2018-03-30T08:48:16.090Z,47.00
2018-03-30T08:50:43.862Z,46.90
2018-03-30T08:53:11.634Z,47.10
2018-03-30T08:55:39.423Z,47.10
2018-03-30T08:58:07.184Z,47.00
2018-03-30T09:00:36.695Z,47.20
2018-03-30T09:03:04.498Z,47.20
2018-03-30T09:05:32.266Z,47.30
2018-03-30T09:08:00.181Z,47.40
2018-03-30T09:10:27.953Z,47.50
2018-03-30T09:12:55.737Z,47.40
2018-03-30T09:15:23.523Z,47.50
2018-03-30T09:17:51.462Z,47.50
2018-03-30T09:20:19.251Z,47.60
2018-03-30T09:22:47.032Z,47.90
2018-03-30T09:25:14.862Z,48.00
2018-03-30T09:27:42.650Z,47.80
2018-03-30T09:30:10.415Z,47.70
2018-03-30T09:32:38.182Z,47.70
2018-03-30T09:35:06.004Z,47.70
2018-03-30T09:37:33.767Z,47.80
2018-03-30T09:40:01.524Z,48.00
2018-03-30T09:42:29.284Z,48.10
2018-03-30T09:44:57.060Z,48.10
2018-03-30T09:47:24.810Z,48.20
2018-03-30T09:49:52.546Z,47.90
2018-03-30T09:52:21.064Z,48.10
2018-03-30T09:54:48.879Z,48.00
2018-03-30T09:57:16.702Z,48.10
2018-03-30T09:59:44.428Z,48.30
2018-03-30T10:02:13.171Z,48.60
2018-03-30T10:04:45.849Z,48.60
2018-03-30T10:07:13.606Z,48.70
2018-03-30T10:09:41.366Z,48.90
2018-03-30T10:12:09.100Z,48.90
2018-03-30T10:14:36.948Z,48.90
2018-03-30T10:17:04.713Z,48.90
2018-03-30T10:19:32.452Z,49.10
2018-03-30T10:22:01.008Z,49.40
2018-03-30T10:24:28.787Z,49.30
2018-03-30T10:26:56.584Z,49.40
2018-03-30T10:29:24.339Z,49.50
2018-03-30T10:31:52.843Z,49.70
2018-03-30T10:34:20.617Z,49.60
2018-03-30T10:36:48.399Z,49.70
2018-03-30T10:39:16.189Z,49.80
2018-03-30T10:41:44.047Z,50.00
2018-03-30T10:44:11.856Z,50.20
2018-03-30T10:46:39.616Z,50.30
2018-03-30T10:49:07.372Z,50.50
2018-03-30T10:51:35.172Z,50.70
2018-03-30T10:54:02.943Z,50.70
2018-03-30T10:56:30.710Z,50.80
2018-03-30T10:58:58.476Z,50.90
2018-03-30T11:01:26.222Z,51.30
2018-03-30T11:03:54.003Z,51.30
2018-03-30T11:06:21.868Z,51.30
2018-03-30T11:08:49.653Z,51.60
2018-03-30T11:11:18.229Z,51.80
2018-03-30T11:13:46.011Z,51.80
2018-03-30T11:16:14.540Z,51.90
2018-03-30T11:18:42.317Z,51.80
2018-03-30T11:21:10.085Z,51.80
2018-03-30T11:23:38.065Z,51.90
2018-03-30T11:26:05.912Z,51.90
2018-03-30T11:28:33.666Z,51.90
2018-03-30T11:31:01.543Z,51.80
2018-03-30T11:33:29.313Z,51.80
2018-03-30T11:35:57.089Z,51.90
2018-03-30T11:38:25.697Z,51.90
2018-03-30T11:40:54.253Z,52.00
2018-03-30T11:43:22.044Z,51.90
2018-03-30T11:45:49.814Z,52.10
2018-03-30T11:48:17.576Z,52.10
2018-03-30T11:50:45.390Z,52.30
2018-03-30T11:53:13.310Z,52.50
2018-03-30T11:55:41.087Z,52.60
2018-03-30T11:58:09.662Z,52.70
2018-03-30T12:00:37.478Z,52.70
2018-03-30T12:03:05.267Z,52.80
2018-03-30T12:05:33.912Z,52.90
2018-03-30T12:08:01.720Z,52.90
2018-03-30T12:10:29.526Z,52.90
2018-03-30T12:12:57.307Z,52.90
2018-03-30T12:15:25.065Z,52.90
2018-03-30T12:17:52.810Z,53.30
2018-03-30T12:20:20.556Z,52.50
2018-03-30T12:22:48.341Z,52.40
2018-03-30T12:25:16.132Z,52.40
2018-03-30T12:27:43.892Z,52.50
2018-03-30T12:30:11.673Z,52.40
2018-03-30T12:32:40.204Z,52.50
2018-03-30T12:35:08.004Z,52.40
2018-03-30T12:37:36.606Z,52.30
2018-03-30T12:40:05.166Z,52.30
2018-03-30T12:42:32.989Z,52.20
2018-03-30T12:45:00.784Z,52.30
2018-03-30T12:47:28.584Z,52.10
2018-03-30T12:49:57.126Z,51.70
2018-03-30T12:52:24.890Z,51.70
2018-03-30T12:54:52.714Z,51.60
2018-03-30T12:57:20.481Z,51.50
2018-03-30T12:59:48.383Z,51.20
2018-03-30T13:02:16.154Z,51.10
2018-03-30T13:04:43.911Z,51.10
2018-03-30T13:07:11.693Z,51.10
2018-03-30T13:09:40.228Z,50.70
2018-03-30T13:12:07.994Z,50.70
2018-03-30T13:14:35.840Z,50.50
2018-03-30T13:17:03.648Z,50.40
2018-03-30T13:19:31.380Z,50.40
2018-03-30T13:21:59.147Z,50.20
2018-03-30T13:24:26.932Z,50.10
2018-03-30T13:26:54.756Z,49.90
2018-03-30T13:29:22.532Z,49.80
2018-03-30T13:31:50.301Z,49.50
2018-03-30T13:34:18.084Z,48.80
2018-03-30T13:36:45.879Z,47.80
2018-03-30T13:39:14.527Z,45.30
2018-03-30T13:41:42.313Z,45.30
2018-03-30T13:44:10.064Z,45.10
2018-03-30T13:46:37.842Z,44.80
2018-03-30T13:49:05.603Z,44.20
2018-03-30T13:51:43.225Z,43.80
2018-03-30T13:54:14.237Z,43.70
2018-03-30T13:56:53.003Z,43.70
2018-03-30T13:59:37.567Z,43.60
2018-03-30T14:02:14.276Z,43.60
2018-03-30T14:04:58.804Z,43.60
2018-03-30T14:07:26.647Z,43.10
2018-03-30T14:09:58.376Z,43.10
2018-03-30T14:12:34.485Z,43.00
2018-03-30T14:15:02.329Z,43.00
2018-03-30T14:17:36.041Z,43.10
2018-03-30T14:20:08.702Z,43.00
2018-03-30T14:22:37.504Z,43.10
2018-03-30T14:25:06.229Z,43.10
2018-03-30T14:27:37.952Z,43.00
2018-03-30T14:30:20.609Z,42.90
2018-03-30T14:32:54.140Z,42.60
2018-03-30T14:35:47.517Z,43.20
2018-03-30T14:38:32.004Z,42.30
2018-03-30T14:41:00.597Z,42.10
2018-03-30T14:43:29.383Z,41.70
2018-03-30T14:45:59.797Z,41.30
2018-03-30T14:48:28.402Z,40.90
2018-03-30T14:51:11.618Z,40.30
2018-03-30T14:53:55.018Z,39.80
2018-03-30T14:56:32.580Z,39.60
2018-03-30T14:59:16.935Z,39.50
2018-03-30T15:01:50.462Z,40.50
2018-03-30T15:04:23.963Z,40.50
2018-03-30T15:07:09.560Z,40.70
2018-03-30T15:09:42.907Z,41.30
2018-03-30T15:15:10.543Z,42.30
2018-03-30T15:17:44.247Z,42.60
2018-03-30T15:20:12.814Z,43.00
2018-03-30T15:22:44.280Z,43.30
2018-03-30T15:25:28.853Z,43.20
2018-03-30T15:27:59.122Z,43.00
2018-03-30T15:30:32.673Z,43.00
2018-03-30T15:33:04.839Z,43.00
2018-03-30T15:35:34.239Z,43.70
2018-03-30T15:38:02.809Z,43.00
2018-03-30T15:40:32.532Z,43.10
2018-03-30T15:43:11.919Z,43.20
2018-03-30T15:45:56.378Z,43.20
2018-03-30T15:48:24.200Z,43.30
2018-03-30T15:50:52.730Z,43.40
2018-03-30T15:53:19.982Z,43.50
2018-03-30T15:55:48.673Z,43.50
2018-03-30T15:58:16.551Z,43.30
2018-03-30T16:00:44.371Z,43.30
2018-03-30T16:03:12.173Z,43.20
2018-03-30T16:05:40.003Z,43.10
2018-03-30T16:08:07.802Z,43.00
2018-03-30T16:10:37.163Z,42.90
2018-03-30T16:13:04.956Z,42.90
2018-03-30T16:15:32.749Z,42.90
2018-03-30T16:18:01.344Z,42.90
2018-03-30T16:20:29.346Z,42.90
2018-03-30T16:22:57.343Z,42.70
2018-03-30T16:25:24.643Z,42.60
2018-03-30T16:27:52.010Z,42.70
2018-03-30T16:30:19.265Z,42.70
2018-03-30T16:32:46.517Z,42.50
2018-03-30T16:35:13.773Z,42.50
2018-03-30T16:37:41.046Z,42.40
2018-03-30T16:40:08.458Z,42.40
2018-03-30T16:42:35.705Z,42.40
2018-03-30T16:45:02.940Z,42.50
2018-03-30T16:47:30.981Z,42.50
2018-03-30T16:49:58.256Z,42.40
2018-03-30T16:52:26.280Z,42.50
2018-03-30T16:54:53.536Z,42.50
2018-03-30T16:57:20.791Z,42.50
2018-03-30T16:59:48.024Z,42.60
2018-03-30T17:02:15.285Z,42.60
2018-03-30T17:04:42.567Z,42.70
2018-03-30T17:07:09.812Z,42.90
2018-03-30T17:09:37.081Z,42.90
2018-03-30T17:12:05.125Z,43.10
2018-03-30T17:14:32.371Z,43.10
2018-03-30T17:16:59.617Z,43.10
2018-03-30T17:19:26.921Z,43.20
2018-03-30T17:21:54.952Z,43.30
2018-03-30T17:24:22.203Z,43.30
2018-03-30T17:26:49.445Z,43.30
2018-03-30T17:29:16.651Z,44.10
2018-03-30T17:31:44.572Z,43.60
2018-03-30T17:34:11.748Z,43.60
2018-03-30T17:36:39.729Z,43.80
2018-03-30T17:39:07.653Z,43.90
2018-03-30T17:41:34.803Z,43.90
2018-03-30T17:44:02.063Z,43.90
2018-03-30T17:46:29.343Z,44.00
2018-03-30T17:48:57.370Z,44.00
2018-03-30T17:51:24.640Z,43.90
2018-03-30T17:53:51.924Z,44.00
2018-03-30T17:56:19.184Z,44.00
2018-03-30T17:58:46.437Z,43.90
2018-03-30T18:01:13.724Z,43.90
2018-03-30T18:03:41.010Z,43.90
2018-03-30T18:06:09.064Z,43.80
2018-03-30T18:08:36.342Z,43.80
2018-03-30T18:11:04.380Z,43.70
2018-03-30T18:13:31.653Z,43.70
2018-03-30T18:15:58.855Z,43.70
2018-03-30T18:18:26.019Z,43.60
2018-03-30T18:20:53.272Z,43.70
2018-03-30T18:23:20.518Z,43.60
2018-03-30T18:25:47.796Z,43.60
2018-03-30T18:28:15.875Z,43.40
2018-03-30T18:30:43.893Z,43.40
2018-03-30T18:33:11.165Z,43.40
2018-03-30T18:35:39.192Z,43.30
2018-03-30T18:38:06.434Z,43.30
2018-03-30T18:40:33.693Z,43.30
2018-03-30T18:43:01.739Z,43.20
2018-03-30T18:45:29.806Z,43.20
2018-03-30T18:47:57.846Z,43.10
2018-03-30T18:50:25.193Z,43.10
2018-03-30T18:52:52.496Z,43.10
2018-03-30T18:55:19.803Z,43.00
2018-03-30T18:57:47.110Z,43.00
2018-03-30T19:00:14.410Z,43.10
2018-03-30T19:02:41.720Z,42.90
2018-03-30T19:05:09.010Z,42.90
2018-03-30T19:07:37.137Z,42.90
2018-03-30T19:10:04.444Z,43.50
2018-03-30T19:12:31.742Z,42.90
2018-03-30T19:14:59.132Z,42.80
2018-03-30T19:17:26.421Z,42.80
2018-03-30T19:19:54.480Z,42.80
2018-03-30T19:22:21.756Z,42.70
2018-03-30T19:24:49.824Z,42.70
2018-03-30T19:27:17.871Z,42.80
2018-03-30T19:29:45.163Z,42.80
2018-03-30T19:32:12.476Z,42.80
2018-03-30T19:34:39.797Z,42.80
2018-03-30T19:37:07.074Z,43.20
2018-03-30T19:39:35.192Z,43.00
2018-03-30T19:42:02.486Z,42.90
2018-03-30T19:44:29.765Z,43.10
2018-03-30T19:46:57.850Z,43.20
2018-03-30T19:49:25.930Z,43.20
2018-03-30T19:51:53.332Z,43.10
2018-03-30T19:54:20.616Z,43.30
2018-03-30T19:56:48.654Z,44.20
2018-03-30T19:59:16.736Z,44.10
2018-03-30T20:01:44.032Z,44.70
2018-03-30T20:04:11.379Z,45.20
2018-03-30T20:06:38.673Z,45.50
2018-03-30T20:09:06.031Z,45.50
2018-03-30T20:11:33.335Z,45.50
2018-03-30T20:14:01.410Z,45.40
2018-03-30T20:19:02.172Z,45.30
2018-03-30T20:21:29.466Z,45.80
2018-03-30T20:23:56.817Z,45.10
2018-03-30T20:26:24.114Z,45.00
2018-03-30T20:28:51.289Z,44.90
2018-03-30T20:31:18.452Z,44.90
2018-03-30T20:33:45.607Z,44.80
2018-03-30T20:36:12.778Z,44.80
2018-03-30T20:38:39.931Z,44.80
2018-03-30T20:41:07.202Z,44.80
2018-03-30T20:43:34.375Z,44.70
2018-03-30T20:46:01.601Z,44.60
2018-03-30T20:48:29.639Z,44.60
2018-03-30T20:50:56.913Z,44.60
2018-03-30T20:53:24.959Z,44.40
2018-03-30T20:55:52.212Z,44.40
2018-03-30T20:58:19.454Z,44.30
2018-03-30T21:00:46.746Z,44.20
2018-03-30T21:03:14.004Z,43.80
2018-03-30T21:05:41.289Z,43.20
2018-03-30T21:08:08.557Z,42.90
2018-03-30T21:10:35.888Z,42.60
2018-03-30T21:13:03.149Z,42.40
2018-03-30T21:15:30.444Z,42.10
2018-03-30T21:17:58.498Z,41.10
2018-03-30T21:20:25.755Z,41.00
2018-03-30T21:22:53.040Z,40.60
2018-03-30T21:25:20.311Z,40.30
2018-03-30T21:27:47.683Z,40.10
2018-03-30T21:30:14.972Z,40.00
2018-03-30T21:32:43.008Z,40.10
2018-03-30T21:35:10.437Z,40.00
2018-03-30T21:37:37.762Z,40.10
2018-03-30T21:40:05.031Z,40.00
2018-03-30T21:42:32.299Z,39.80
2018-03-30T21:44:59.557Z,39.60
2018-03-30T21:47:26.873Z,39.40
2018-03-30T21:49:54.899Z,39.10
2018-03-30T21:52:22.181Z,39.00
2018-03-30T21:54:50.216Z,38.80
2018-03-30T21:57:17.559Z,38.70
2018-03-30T21:59:44.920Z,38.80
2018-03-30T22:02:12.195Z,38.80
2018-03-30T22:04:39.436Z,38.70
2018-03-30T22:07:06.684Z,38.70
2018-03-30T22:09:33.942Z,38.70
2018-03-30T22:12:01.199Z,38.70
2018-03-30T22:14:28.474Z,38.70
2018-03-30T22:16:55.738Z,38.60
2018-03-30T22:19:22.986Z,38.60
2018-03-30T22:21:50.218Z,38.60
2018-03-30T22:24:18.247Z,38.50
2018-03-30T22:26:45.478Z,38.50
2018-03-30T22:29:12.744Z,38.50
2018-03-30T22:31:40.002Z,38.50
2018-03-30T22:34:07.252Z,38.50
2018-03-30T22:36:34.515Z,38.40
2018-03-30T22:39:01.769Z,38.30
2018-03-30T22:41:29.030Z,38.20
2018-03-30T22:43:56.268Z,38.10
2018-03-30T22:46:23.504Z,38.10
2018-03-30T22:48:50.734Z,38.10
2018-03-30T22:51:18.049Z,38.00
2018-03-30T22:53:46.043Z,38.00
2018-03-30T22:56:13.282Z,38.00
2018-03-30T22:58:40.552Z,38.00
2018-03-30T23:01:07.802Z,38.10
2018-03-30T23:03:35.051Z,38.10
2018-03-30T23:06:02.310Z,38.10
2018-03-30T23:08:29.570Z,38.10
2018-03-30T23:10:56.835Z,38.00
2018-03-30T23:13:24.130Z,38.10
2018-03-30T23:15:52.146Z,37.60
2018-03-30T23:18:19.376Z,37.60
2018-03-30T23:20:46.533Z,37.50
2018-03-30T23:23:13.719Z,37.50
2018-03-30T23:25:40.958Z,37.40
2018-03-30T23:28:08.140Z,37.40
2018-03-30T23:30:35.356Z,37.40
2018-03-30T23:33:02.516Z,37.20
2018-03-30T23:35:29.666Z,36.90
2018-03-30T23:37:56.815Z,36.80
2018-03-30T23:40:23.982Z,36.60
2018-03-30T23:42:51.203Z,36.60
2018-03-30T23:45:18.385Z,36.30
2018-03-30T23:47:45.566Z,36.10
2018-03-30T23:50:12.708Z,36.10
2018-03-30T23:52:40.700Z,36.50
2018-03-30T23:55:07.879Z,35.90
2018-03-30T23:57:35.051Z,35.80
